Terminal Aerodrome Forecast
Issued by NWS Melbourne, FL

Home | Current Version | Previous Version | Text Only | Print | Product List | Glossary On
Versions: 1 2 3 4 5 6 7 8 9 10 11 12 13 14 15 16 17 18
000
FTUS42 KMLB 180800 AAA
TAFVRB
TAF AMD
KVRB 180823Z 1808/1906 07012KT P6SM -SHRA SCT015 OVC025
      TEMPO 1809/1812 4SM TSRA BKN015CB BKN025
     FM181200 14012KT P6SM VCSH SCT035 BKN060
     FM182100 14010KT P6SM SHRA VCTS SCT020 BKN040CB OVC060=

USA.gov is the U.S. government's official web portal to all federal, state and local government web resources and services.